createdAt,value
2018-09-14T00:00:12.622Z,0.00
2018-09-14T00:01:12.616Z,0.00
2018-09-14T00:02:12.600Z,0.00
2018-09-14T00:03:12.771Z,0.00
2018-09-14T00:04:12.580Z,0.00
2018-09-14T00:05:12.572Z,0.00
2018-09-14T00:06:12.559Z,0.00
2018-09-14T00:07:12.548Z,0.00
2018-09-14T00:08:12.603Z,0.00
2018-09-14T00:09:12.531Z,0.00
2018-09-14T00:10:12.517Z,0.00
2018-09-14T00:11:12.504Z,0.00
2018-09-14T00:12:12.493Z,0.00
2018-09-14T00:13:12.745Z,0.00
2018-09-14T00:14:12.477Z,0.00
2018-09-14T00:15:12.461Z,0.00
2018-09-14T00:16:12.450Z,0.00
2018-09-14T00:17:12.438Z,0.00
2018-09-14T00:18:13.493Z,0.00
2018-09-14T00:19:12.419Z,0.00
2018-09-14T00:20:12.418Z,0.00
2018-09-14T00:21:12.396Z,0.00
2018-09-14T00:22:12.387Z,0.00
2018-09-14T00:23:13.631Z,0.00
2018-09-14T00:24:12.364Z,0.00
2018-09-14T00:25:12.356Z,0.00
2018-09-14T00:26:12.349Z,0.00
2018-09-14T00:27:12.334Z,0.00
2018-09-14T00:28:12.544Z,0.00
2018-09-14T00:29:12.313Z,0.00
2018-09-14T00:30:12.302Z,0.00
2018-09-14T00:31:12.290Z,0.00
2018-09-14T00:32:12.296Z,0.00
2018-09-14T00:33:12.374Z,0.00
2018-09-14T00:34:12.259Z,0.00
2018-09-14T00:35:12.246Z,0.00
2018-09-14T00:36:12.235Z,0.00
2018-09-14T00:37:12.225Z,0.00
2018-09-14T00:38:12.510Z,0.00
2018-09-14T00:39:12.205Z,0.00
2018-09-14T00:40:12.193Z,0.00
2018-09-14T00:41:12.185Z,0.00
2018-09-14T00:42:12.172Z,0.00
2018-09-14T00:43:12.340Z,0.00
2018-09-14T00:44:12.152Z,0.00
2018-09-14T00:45:12.140Z,0.00
2018-09-14T00:46:12.130Z,0.00
2018-09-14T00:47:12.116Z,0.00
2018-09-14T00:48:12.173Z,0.00
2018-09-14T00:49:12.098Z,0.00
2018-09-14T00:50:12.086Z,0.00
2018-09-14T00:51:12.073Z,0.00
2018-09-14T00:52:12.064Z,0.00
2018-09-14T00:53:12.317Z,0.00
2018-09-14T00:54:12.043Z,0.00
2018-09-14T00:55:12.034Z,0.00
2018-09-14T00:56:12.020Z,0.00
2018-09-14T00:57:12.011Z,0.00
2018-09-14T00:58:12.145Z,0.00
2018-09-14T00:59:11.989Z,0.00
2018-09-14T01:00:11.981Z,0.00
2018-09-14T01:01:11.971Z,0.00
2018-09-14T01:02:11.960Z,0.00
2018-09-14T01:03:12.282Z,0.00
2018-09-14T01:04:11.935Z,0.00
2018-09-14T01:05:11.925Z,0.00
2018-09-14T01:06:11.917Z,0.00
2018-09-14T01:07:11.903Z,0.00
2018-09-14T01:08:12.111Z,0.00
2018-09-14T01:09:11.882Z,0.00
2018-09-14T01:10:11.871Z,0.00
2018-09-14T01:11:11.861Z,0.00
2018-09-14T01:12:11.849Z,0.00
2018-09-14T01:13:13.177Z,0.00
2018-09-14T01:14:11.828Z,0.00
2018-09-14T01:15:11.817Z,0.00
2018-09-14T01:16:11.806Z,0.00
2018-09-14T01:17:11.879Z,0.00
2018-09-14T01:18:12.085Z,0.00
2018-09-14T01:19:11.775Z,0.00
2018-09-14T01:20:11.784Z,0.00
2018-09-14T01:21:11.755Z,0.00
2018-09-14T01:22:11.742Z,0.00
2018-09-14T01:23:13.142Z,0.00
2018-09-14T01:24:11.719Z,0.00
2018-09-14T01:25:11.712Z,0.00
2018-09-14T01:26:11.702Z,0.00
2018-09-14T01:27:11.698Z,0.00
2018-09-14T01:28:12.053Z,0.00
2018-09-14T01:29:11.668Z,0.00
2018-09-14T01:30:11.654Z,0.00
2018-09-14T01:31:11.650Z,0.00
2018-09-14T01:32:11.635Z,0.00
2018-09-14T01:33:11.883Z,0.00
2018-09-14T01:34:11.614Z,0.00
2018-09-14T01:35:11.600Z,0.00
2018-09-14T01:36:11.593Z,0.00
2018-09-14T01:37:11.585Z,0.00
2018-09-14T01:38:11.716Z,0.00
2018-09-14T01:39:11.562Z,0.00
2018-09-14T01:40:11.548Z,0.00
2018-09-14T01:41:11.536Z,0.00
2018-09-14T01:42:11.525Z,0.00
2018-09-14T01:43:12.773Z,0.00
2018-09-14T01:44:11.506Z,0.00
2018-09-14T01:45:11.495Z,0.00
2018-09-14T01:46:11.483Z,0.00
2018-09-14T01:47:11.473Z,0.00
2018-09-14T01:48:11.683Z,0.00
2018-09-14T01:49:11.456Z,0.00
2018-09-14T01:50:11.444Z,0.00
2018-09-14T01:51:11.432Z,0.00
2018-09-14T01:52:11.425Z,0.00
2018-09-14T01:53:11.513Z,0.00
2018-09-14T01:54:11.398Z,0.00
2018-09-14T01:55:11.394Z,0.00
2018-09-14T01:56:11.377Z,0.00
2018-09-14T01:57:11.366Z,0.00
2018-09-14T01:58:11.655Z,0.00
2018-09-14T01:59:11.345Z,0.00
2018-09-14T02:00:11.339Z,0.00
2018-09-14T02:01:11.324Z,0.00
2018-09-14T02:02:12.301Z,0.00
2018-09-14T02:03:11.486Z,0.00
2018-09-14T02:04:11.291Z,0.00
2018-09-14T02:05:11.285Z,0.00
2018-09-14T02:06:11.273Z,0.00
2018-09-14T02:07:11.258Z,0.00
2018-09-14T02:08:12.545Z,0.00
2018-09-14T02:09:11.277Z,0.00
2018-09-14T02:10:11.227Z,0.00
2018-09-14T02:11:11.216Z,0.00
2018-09-14T02:12:11.207Z,0.00
2018-09-14T02:13:11.198Z,0.00
2018-09-14T02:14:11.357Z,0.00
2018-09-14T02:15:11.177Z,0.00
2018-09-14T02:16:11.162Z,0.00
2018-09-14T02:17:11.155Z,0.00
2018-09-14T02:18:11.145Z,0.00
2018-09-14T02:19:12.421Z,0.00
2018-09-14T02:20:11.120Z,0.00
2018-09-14T02:21:11.108Z,0.00
2018-09-14T02:22:11.098Z,0.00
2018-09-14T02:23:11.093Z,0.00
2018-09-14T02:24:12.251Z,0.00
2018-09-14T02:25:11.065Z,0.00
2018-09-14T02:26:11.058Z,0.00
2018-09-14T02:27:11.047Z,0.00
2018-09-14T02:28:11.035Z,0.00
2018-09-14T02:29:13.315Z,0.00
2018-09-14T02:30:11.012Z,0.00
2018-09-14T02:31:11.001Z,0.00
2018-09-14T02:32:11.006Z,0.00
2018-09-14T02:33:10.981Z,0.00
2018-09-14T02:34:11.296Z,0.00
2018-09-14T02:35:10.961Z,0.00
2018-09-14T02:36:10.947Z,0.00
2018-09-14T02:37:10.937Z,0.00
2018-09-14T02:38:10.931Z,0.00
2018-09-14T02:39:11.129Z,0.00
2018-09-14T02:40:10.908Z,0.00
2018-09-14T02:41:10.894Z,0.00
2018-09-14T02:42:10.885Z,0.00
2018-09-14T02:43:10.872Z,0.00
2018-09-14T02:44:12.189Z,0.00
2018-09-14T02:45:11.806Z,0.00
2018-09-14T02:46:10.842Z,0.00
2018-09-14T02:47:10.830Z,0.00
2018-09-14T02:48:10.822Z,0.00
2018-09-14T02:49:11.099Z,0.00
2018-09-14T02:50:10.797Z,0.00
2018-09-14T02:51:10.788Z,0.00
2018-09-14T02:52:10.777Z,0.00
2018-09-14T02:53:10.766Z,0.00
2018-09-14T02:54:10.929Z,0.00
2018-09-14T02:55:10.773Z,0.00
2018-09-14T02:56:10.737Z,0.00
2018-09-14T02:57:10.722Z,0.00
2018-09-14T02:58:10.715Z,0.00
2018-09-14T02:59:10.761Z,0.00
2018-09-14T03:00:10.762Z,0.00
2018-09-14T03:01:10.680Z,0.00
2018-09-14T03:02:10.670Z,0.00
2018-09-14T03:03:10.659Z,0.00
2018-09-14T03:04:10.898Z,0.00
2018-09-14T03:05:10.638Z,0.00
2018-09-14T03:06:10.633Z,0.00
2018-09-14T03:07:10.618Z,0.00
2018-09-14T03:08:10.607Z,0.00
2018-09-14T03:09:10.728Z,0.00
2018-09-14T03:10:10.582Z,0.00
2018-09-14T03:11:10.571Z,0.00
2018-09-14T03:12:10.570Z,0.00
2018-09-14T03:13:10.550Z,0.00
2018-09-14T03:14:10.869Z,0.00
2018-09-14T03:15:10.529Z,0.00
2018-09-14T03:16:10.519Z,0.00
2018-09-14T03:17:10.515Z,0.00
2018-09-14T03:18:10.502Z,0.00
2018-09-14T03:19:10.699Z,0.00
2018-09-14T03:20:10.475Z,0.00
2018-09-14T03:21:10.464Z,0.00
2018-09-14T03:22:10.453Z,0.00
2018-09-14T03:23:10.448Z,0.00
2018-09-14T03:24:10.529Z,0.00
2018-09-14T03:25:10.424Z,0.00
2018-09-14T03:26:10.413Z,0.00
2018-09-14T03:27:10.400Z,0.00
2018-09-14T03:28:10.392Z,0.00
2018-09-14T03:29:10.668Z,0.00
2018-09-14T03:30:10.368Z,0.00
2018-09-14T03:31:10.357Z,0.00
2018-09-14T03:32:10.398Z,0.00
2018-09-14T03:33:10.336Z,0.00
2018-09-14T03:34:10.498Z,0.00
2018-09-14T03:35:10.320Z,0.00
2018-09-14T03:36:10.302Z,0.00
2018-09-14T03:37:10.291Z,0.00
2018-09-14T03:38:10.284Z,0.00
2018-09-14T03:39:10.364Z,0.00
2018-09-14T03:40:10.264Z,0.00
2018-09-14T03:41:10.254Z,0.00
2018-09-14T03:42:10.238Z,0.00
2018-09-14T03:43:10.228Z,0.00
2018-09-14T03:44:10.470Z,0.00
2018-09-14T03:45:10.209Z,0.00
2018-09-14T03:46:10.195Z,0.00
2018-09-14T03:47:10.186Z,0.00
2018-09-14T03:48:10.175Z,0.00
2018-09-14T03:49:10.302Z,0.00
2018-09-14T03:50:10.152Z,0.00
2018-09-14T03:51:10.139Z,0.00
2018-09-14T03:52:10.132Z,0.00
2018-09-14T03:53:10.120Z,0.00
2018-09-14T03:54:11.364Z,0.00
2018-09-14T03:55:10.100Z,0.00
2018-09-14T03:56:10.090Z,0.00
2018-09-14T03:57:10.149Z,0.00
2018-09-14T03:58:10.064Z,0.00
2018-09-14T03:59:10.275Z,0.00
2018-09-14T04:00:10.044Z,0.00
2018-09-14T04:01:10.034Z,0.00
2018-09-14T04:02:10.022Z,0.00
2018-09-14T04:03:10.014Z,0.00
2018-09-14T04:04:10.101Z,0.00
2018-09-14T04:05:09.996Z,0.00
2018-09-14T04:06:09.979Z,0.00
2018-09-14T04:07:09.971Z,0.00
2018-09-14T04:08:09.957Z,0.00
2018-09-14T04:09:11.162Z,0.00
2018-09-14T04:10:09.937Z,0.00
2018-09-14T04:11:09.934Z,0.00
2018-09-14T04:12:09.915Z,0.00
2018-09-14T04:13:09.905Z,0.00
2018-09-14T04:14:10.069Z,0.00
2018-09-14T04:15:09.895Z,0.00
2018-09-14T04:16:09.873Z,0.00
2018-09-14T04:17:09.867Z,0.00
2018-09-14T04:18:09.853Z,0.00
2018-09-14T04:19:09.908Z,0.00
2018-09-14T04:20:09.830Z,0.00
2018-09-14T04:21:09.819Z,0.00
2018-09-14T04:22:09.808Z,0.00
2018-09-14T04:23:09.803Z,0.00
2018-09-14T04:24:10.039Z,0.00
2018-09-14T04:25:09.774Z,0.00
2018-09-14T04:26:09.763Z,0.00
2018-09-14T04:27:09.754Z,0.00
2018-09-14T04:28:09.745Z,4.00
2018-09-14T04:29:09.872Z,4.00
2018-09-14T04:30:09.721Z,4.00
2018-09-14T04:31:09.711Z,4.00
2018-09-14T04:32:09.702Z,4.00
2018-09-14T04:33:09.690Z,8.00
2018-09-14T04:34:10.021Z,8.00
2018-09-14T04:35:09.670Z,12.00
2018-09-14T04:36:09.656Z,12.00
2018-09-14T04:37:09.645Z,12.00
2018-09-14T04:38:09.740Z,12.00
2018-09-14T04:39:09.847Z,16.00
2018-09-14T04:40:09.620Z,20.00
2018-09-14T04:41:09.603Z,28.00
2018-09-14T04:42:09.897Z,28.00
2018-09-14T04:43:09.582Z,36.00
2018-09-14T04:44:09.673Z,40.00
2018-09-14T04:45:09.570Z,48.00
2018-09-14T04:46:09.550Z,52.00
2018-09-14T04:47:09.537Z,60.00
2018-09-14T04:48:09.529Z,68.00
2018-09-14T04:49:09.816Z,72.00
2018-09-14T04:50:09.505Z,76.00
2018-09-14T04:51:09.764Z,84.00
2018-09-14T04:52:09.493Z,92.00
2018-09-14T04:53:09.486Z,100.00
2018-09-14T04:54:09.640Z,108.00
2018-09-14T04:55:09.453Z,112.00
2018-09-14T04:56:09.441Z,120.00
2018-09-14T04:57:09.431Z,124.00
2018-09-14T04:58:09.420Z,132.00
2018-09-14T04:59:09.474Z,136.00
2018-09-14T05:00:09.401Z,144.00
2018-09-14T05:01:09.388Z,148.00
2018-09-14T05:02:09.381Z,156.00
2018-09-14T05:03:09.368Z,164.00
2018-09-14T05:04:09.611Z,176.00
2018-09-14T05:05:09.345Z,180.00
2018-09-14T05:06:09.333Z,196.00
2018-09-14T05:07:09.323Z,200.00
2018-09-14T05:08:09.311Z,212.00
2018-09-14T05:09:09.444Z,232.00
2018-09-14T05:10:09.300Z,256.00
2018-09-14T05:11:09.278Z,280.00
2018-09-14T05:12:09.269Z,312.00
2018-09-14T05:13:09.258Z,344.00
2018-09-14T05:14:09.643Z,368.00
2018-09-14T05:15:09.254Z,400.00
2018-09-14T05:16:09.228Z,440.00
2018-09-14T05:17:09.220Z,476.00
2018-09-14T05:18:09.205Z,508.00
2018-09-14T05:19:09.414Z,544.00
2018-09-14T05:20:09.183Z,592.00
2018-09-14T05:21:09.189Z,644.00
2018-09-14T05:22:09.168Z,696.00
2018-09-14T05:23:09.152Z,740.00
2018-09-14T05:24:09.313Z,776.00
2018-09-14T05:25:09.181Z,804.00
2018-09-14T05:26:09.117Z,852.00
2018-09-14T05:27:09.118Z,888.00
2018-09-14T05:28:09.101Z,920.00
2018-09-14T05:29:09.381Z,960.00
2018-09-14T05:30:09.075Z,996.00
2018-09-14T05:31:09.063Z,1008.00
2018-09-14T05:32:09.058Z,992.00
2018-09-14T05:33:09.044Z,972.00
2018-09-14T05:34:09.415Z,984.00
2018-09-14T05:35:09.027Z,1020.00
2018-09-14T05:36:09.011Z,1076.00
2018-09-14T05:37:09.001Z,1132.00
2018-09-14T05:38:09.042Z,1196.00
2018-09-14T05:39:09.044Z,1264.00
2018-09-14T05:40:08.968Z,1328.00
2018-09-14T05:41:08.956Z,1388.00
2018-09-14T05:42:08.946Z,1424.00
2018-09-14T05:43:08.935Z,1448.00
2018-09-14T05:44:09.182Z,1480.00
2018-09-14T05:45:08.917Z,1528.00
2018-09-14T05:46:08.903Z,1584.00
2018-09-14T05:47:08.894Z,1632.00
2018-09-14T05:48:08.883Z,1676.00
2018-09-14T05:49:09.068Z,1720.00
2018-09-14T05:50:08.871Z,1740.00
2018-09-14T05:51:08.855Z,1768.00
2018-09-14T05:52:08.837Z,1812.00
2018-09-14T05:53:08.827Z,1860.00
2018-09-14T05:54:10.073Z,1896.00
2018-09-14T05:55:08.806Z,1920.00
2018-09-14T05:56:08.795Z,1944.00
2018-09-14T05:57:08.784Z,1976.00
2018-09-14T05:58:08.778Z,2028.00
2018-09-14T05:59:08.986Z,2088.00
2018-09-14T06:00:08.751Z,2132.00
2018-09-14T06:01:08.745Z,2176.00
2018-09-14T06:02:08.731Z,2228.00
2018-09-14T06:03:08.722Z,2260.00
2018-09-14T06:04:08.815Z,2260.00
2018-09-14T06:05:08.700Z,2280.00
2018-09-14T06:06:08.688Z,2300.00
2018-09-14T06:07:08.677Z,2328.00
2018-09-14T06:08:08.667Z,2388.00
2018-09-14T06:09:08.953Z,2476.00
2018-09-14T06:10:08.644Z,2552.00
2018-09-14T06:11:08.634Z,2628.00
2018-09-14T06:12:08.623Z,2704.00
2018-09-14T06:13:08.612Z,2772.00
2018-09-14T06:14:08.604Z,2812.00
2018-09-14T06:15:08.696Z,2820.00
2018-09-14T06:16:08.581Z,2828.00
2018-09-14T06:17:08.640Z,2868.00
2018-09-14T06:18:08.561Z,2908.00
2018-09-14T06:19:08.554Z,2904.00
2018-09-14T06:20:08.847Z,2904.00
2018-09-14T06:21:08.543Z,2908.00
2018-09-14T06:22:08.517Z,2944.00
2018-09-14T06:23:08.606Z,2996.00
2018-09-14T06:24:08.495Z,3028.00
2018-09-14T06:25:08.662Z,3056.00
2018-09-14T06:26:08.472Z,3080.00
2018-09-14T06:27:08.466Z,3132.00
2018-09-14T06:28:08.453Z,3200.00
2018-09-14T06:29:08.442Z,3260.00
2018-09-14T06:30:08.495Z,3312.00
2018-09-14T06:31:08.419Z,3356.00
2018-09-14T06:32:08.412Z,3408.00
2018-09-14T06:33:08.404Z,3456.00
2018-09-14T06:34:08.388Z,3516.00
2018-09-14T06:35:08.631Z,3532.00
2018-09-14T06:36:08.367Z,3492.00
2018-09-14T06:37:08.354Z,3460.00
2018-09-14T06:38:08.376Z,3444.00
2018-09-14T06:39:09.294Z,3440.00
2018-09-14T06:40:08.459Z,3420.00
2018-09-14T06:41:08.314Z,3384.00
2018-09-14T06:42:08.301Z,3300.00
2018-09-14T06:43:08.292Z,3172.00
2018-09-14T06:44:08.281Z,3040.00
2018-09-14T06:45:08.714Z,2972.00
2018-09-14T06:46:08.258Z,2864.00
2018-09-14T06:47:08.251Z,2684.00
2018-09-14T06:48:08.237Z,2620.00
2018-09-14T06:49:08.229Z,2576.00
2018-09-14T06:50:08.427Z,2488.00
2018-09-14T06:51:08.205Z,2396.00
2018-09-14T06:52:08.232Z,2324.00
2018-09-14T06:53:08.206Z,2324.00
2018-09-14T06:54:08.172Z,2356.00
2018-09-14T06:55:08.261Z,2368.00
2018-09-14T06:56:08.158Z,2380.00
2018-09-14T06:57:08.139Z,2476.00
2018-09-14T06:58:08.128Z,2652.00
2018-09-14T06:59:08.118Z,2984.00
2018-09-14T07:00:08.416Z,3532.00
2018-09-14T07:01:08.101Z,4072.00
2018-09-14T07:02:08.090Z,4716.00
2018-09-14T07:03:08.076Z,5148.00
2018-09-14T07:04:08.066Z,5420.00
2018-09-14T07:05:29.065Z,5720.00
2018-09-14T07:06:08.047Z,6040.00
2018-09-14T07:07:08.033Z,6412.00
2018-09-14T07:08:08.028Z,6592.00
2018-09-14T07:09:08.015Z,6584.00
2018-09-14T07:10:08.060Z,6560.00
2018-09-14T07:11:07.994Z,6580.00
2018-09-14T07:12:07.984Z,6792.00
2018-09-14T07:13:08.393Z,7084.00
2018-09-14T07:14:07.961Z,7396.00
2018-09-14T07:15:08.202Z,7384.00
2018-09-14T07:16:07.940Z,7200.00
2018-09-14T07:17:07.931Z,6856.00
2018-09-14T07:18:07.921Z,6412.00
2018-09-14T07:19:07.911Z,5808.00
2018-09-14T07:20:08.036Z,5232.00
2018-09-14T07:21:07.891Z,5040.00
2018-09-14T07:22:07.951Z,5148.00
2018-09-14T07:23:07.871Z,5192.00
2018-09-14T07:24:07.860Z,5208.00
2018-09-14T07:25:08.171Z,5128.00
2018-09-14T07:26:07.841Z,4968.00
2018-09-14T07:27:07.850Z,4828.00
2018-09-14T07:28:07.824Z,4808.00
2018-09-14T07:29:07.941Z,5040.00
2018-09-14T07:30:08.010Z,5368.00
2018-09-14T07:31:07.815Z,5520.00
2018-09-14T07:32:07.782Z,5668.00
2018-09-14T07:33:07.775Z,6004.00
2018-09-14T07:34:07.759Z,6376.00
2018-09-14T07:35:08.136Z,6312.00
2018-09-14T07:36:07.740Z,6056.00
2018-09-14T07:37:08.019Z,5716.00
2018-09-14T07:38:08.009Z,5480.00
2018-09-14T07:39:07.998Z,5344.00
2018-09-14T07:40:08.276Z,5104.00
2018-09-14T07:41:07.978Z,4904.00
2018-09-14T07:42:07.968Z,4900.00
2018-09-14T07:43:07.959Z,5180.00
2018-09-14T07:44:08.298Z,5460.00
2018-09-14T07:45:08.059Z,5516.00
2018-09-14T07:46:08.298Z,5616.00
2018-09-14T07:47:08.297Z,5820.00
2018-09-14T07:48:08.347Z,6132.00
2018-09-14T07:49:08.299Z,6296.00
2018-09-14T07:50:07.634Z,6312.00
2018-09-14T07:51:08.298Z,6276.00
2018-09-14T07:52:07.551Z,6252.00
2018-09-14T07:53:07.538Z,6140.00
2018-09-14T07:54:07.529Z,5980.00
2018-09-14T07:55:07.769Z,5764.00
2018-09-14T07:56:08.298Z,5492.00
2018-09-14T07:57:07.496Z,5320.00
2018-09-14T07:58:07.484Z,5272.00
2018-09-14T07:59:07.473Z,5212.00
2018-09-14T08:00:07.902Z,4932.00
2018-09-14T08:01:07.473Z,4592.00
2018-09-14T08:02:07.441Z,4328.00
2018-09-14T08:03:07.431Z,4148.00
2018-09-14T08:04:07.418Z,4144.00
2018-09-14T08:05:07.408Z,4256.00
2018-09-14T08:06:07.656Z,4332.00
2018-09-14T08:07:07.390Z,4344.00
2018-09-14T08:08:07.376Z,4260.00
2018-09-14T08:09:07.366Z,4116.00
2018-09-14T08:10:07.355Z,3864.00
2018-09-14T08:11:09.626Z,3672.00
2018-09-14T08:12:07.337Z,3408.00
2018-09-14T08:13:07.343Z,3240.00
2018-09-14T08:14:07.313Z,3316.00
2018-09-14T08:15:07.309Z,3496.00
2018-09-14T08:16:07.618Z,3624.00
2018-09-14T08:17:07.285Z,3660.00
2018-09-14T08:18:07.279Z,3792.00
2018-09-14T08:19:07.263Z,4028.00
2018-09-14T08:20:07.302Z,4324.00
2018-09-14T08:21:10.604Z,4652.00
2018-09-14T08:22:07.228Z,4628.00
2018-09-14T08:23:07.218Z,4848.00
2018-09-14T08:24:07.212Z,5412.00
2018-09-14T08:25:07.200Z,6132.00
2018-09-14T08:26:07.283Z,6832.00
2018-09-14T08:27:07.193Z,7572.00
2018-09-14T08:28:07.167Z,7780.00
2018-09-14T08:29:07.155Z,7924.00
2018-09-14T08:30:07.152Z,8060.00
2018-09-14T08:31:07.415Z,8324.00
2018-09-14T08:32:07.121Z,8448.00
2018-09-14T08:33:07.113Z,8512.00
2018-09-14T08:34:07.100Z,8880.00
2018-09-14T08:35:07.089Z,8796.00
2018-09-14T08:36:07.254Z,7960.00
2018-09-14T08:37:07.068Z,7100.00
2018-09-14T08:38:07.059Z,6632.00
2018-09-14T08:39:07.044Z,6736.00
2018-09-14T08:40:07.034Z,7116.00
2018-09-14T08:41:07.078Z,7072.00
2018-09-14T08:42:07.013Z,6820.00
2018-09-14T08:43:07.004Z,6828.00
2018-09-14T08:44:06.990Z,6852.00
2018-09-14T08:45:06.982Z,6808.00
2018-09-14T08:46:06.970Z,6548.00
2018-09-14T08:47:07.119Z,6004.00
2018-09-14T08:48:06.949Z,5904.00
2018-09-14T08:49:06.939Z,6380.00
2018-09-14T08:50:06.926Z,6744.00
2018-09-14T08:51:06.916Z,6784.00
2018-09-14T08:52:06.949Z,6360.00
2018-09-14T08:53:06.894Z,5740.00
2018-09-14T08:54:06.882Z,5556.00
2018-09-14T08:55:06.875Z,5568.00
2018-09-14T08:56:06.868Z,5588.00
2018-09-14T08:57:08.014Z,5560.00
2018-09-14T08:58:06.848Z,5280.00
2018-09-14T08:59:06.829Z,4940.00
2018-09-14T09:00:06.818Z,4796.00
2018-09-14T09:01:06.810Z,4852.00
2018-09-14T09:02:06.924Z,5144.00
2018-09-14T09:03:06.787Z,5740.00
2018-09-14T09:04:06.780Z,6428.00
2018-09-14T09:05:06.765Z,6936.00
2018-09-14T09:06:06.755Z,7240.00
2018-09-14T09:07:07.109Z,7280.00
2018-09-14T09:08:06.735Z,7396.00
2018-09-14T09:09:06.725Z,7600.00
2018-09-14T09:10:06.715Z,7500.00
2018-09-14T09:11:06.701Z,7440.00
2018-09-14T09:12:06.900Z,7772.00
2018-09-14T09:13:06.685Z,8264.00
2018-09-14T09:14:06.671Z,8612.00
2018-09-14T09:15:06.657Z,8872.00
2018-09-14T09:16:06.647Z,8788.00
2018-09-14T09:17:07.306Z,8888.00
2018-09-14T09:18:06.626Z,9268.00
2018-09-14T09:19:06.614Z,9524.00
2018-09-14T09:20:06.604Z,9772.00
2018-09-14T09:21:06.595Z,9788.00
2018-09-14T09:22:06.861Z,9736.00
2018-09-14T09:23:06.572Z,9892.00
2018-09-14T09:24:06.563Z,10068.00
2018-09-14T09:25:06.549Z,10136.00
2018-09-14T09:26:06.540Z,9996.00
2018-09-14T09:27:06.529Z,9852.00
2018-09-14T09:28:06.601Z,9768.00
2018-09-14T09:29:06.513Z,9920.00
2018-09-14T09:30:06.501Z,10020.00
2018-09-14T09:31:06.494Z,10044.00
2018-09-14T09:32:07.307Z,10000.00
2018-09-14T09:33:06.737Z,9860.00
2018-09-14T09:34:06.453Z,9748.00
2018-09-14T09:35:06.447Z,9476.00
2018-09-14T09:36:06.451Z,9072.00
2018-09-14T09:37:06.422Z,8564.00
2018-09-14T09:38:06.571Z,7768.00
2018-09-14T09:39:06.398Z,6624.00
2018-09-14T09:40:06.389Z,5964.00
2018-09-14T09:41:06.386Z,5688.00
2018-09-14T09:42:06.392Z,5824.00
2018-09-14T09:43:06.712Z,6296.00
2018-09-14T09:44:06.424Z,7628.00
2018-09-14T09:45:06.336Z,8032.00
2018-09-14T09:46:06.324Z,8964.00
2018-09-14T09:47:06.325Z,9628.00
2018-09-14T09:48:06.534Z,10280.00
2018-09-14T09:49:06.296Z,10792.00
2018-09-14T09:50:06.282Z,10104.00
2018-09-14T09:51:06.299Z,10000.00
2018-09-14T09:52:06.262Z,11000.00
2018-09-14T09:53:06.255Z,11368.00
2018-09-14T09:54:09.654Z,11604.00
2018-09-14T09:55:06.229Z,11340.00
2018-09-14T09:56:06.218Z,10252.00
2018-09-14T09:57:06.210Z,9356.00
2018-09-14T09:58:06.197Z,8340.00
2018-09-14T09:59:06.412Z,7516.00
2018-09-14T10:00:06.180Z,7264.00
2018-09-14T10:01:06.166Z,7180.00
2018-09-14T10:02:06.154Z,7604.00
2018-09-14T10:03:06.144Z,8056.00
2018-09-14T10:04:06.310Z,8296.00
2018-09-14T10:05:06.123Z,8152.00
2018-09-14T10:06:06.119Z,7540.00
2018-09-14T10:07:06.105Z,7100.00
2018-09-14T10:08:06.090Z,7104.00
2018-09-14T10:09:06.376Z,7300.00
2018-09-14T10:10:06.069Z,7756.00
2018-09-14T10:11:06.062Z,8072.00
2018-09-14T10:12:06.051Z,8504.00
2018-09-14T10:13:06.036Z,9288.00
2018-09-14T10:14:07.186Z,10244.00
2018-09-14T10:15:06.087Z,10436.00
2018-09-14T10:16:06.007Z,10472.00
2018-09-14T10:17:05.997Z,10232.00
2018-09-14T10:18:05.985Z,9828.00
2018-09-14T10:19:06.039Z,9620.00
2018-09-14T10:20:05.963Z,9588.00
2018-09-14T10:21:05.979Z,9756.00
2018-09-14T10:22:05.946Z,9524.00
2018-09-14T10:23:05.933Z,9236.00
2018-09-14T10:24:06.176Z,9308.00
2018-09-14T10:25:05.913Z,9504.00
2018-09-14T10:26:05.901Z,9836.00
2018-09-14T10:27:05.890Z,9620.00
2018-09-14T10:28:05.883Z,9112.00
2018-09-14T10:29:06.320Z,8672.00
2018-09-14T10:30:05.860Z,8768.00
2018-09-14T10:31:05.851Z,9292.00
2018-09-14T10:32:05.841Z,9744.00
2018-09-14T10:33:05.831Z,9744.00
2018-09-14T10:34:10.141Z,9276.00
2018-09-14T10:35:05.845Z,8980.00
2018-09-14T10:36:05.799Z,8432.00
2018-09-14T10:37:05.830Z,8236.00
2018-09-14T10:38:05.778Z,8464.00
2018-09-14T10:39:05.981Z,8280.00
2018-09-14T10:40:05.778Z,8104.00
2018-09-14T10:41:05.775Z,8528.00
2018-09-14T10:42:05.737Z,9568.00
2018-09-14T10:43:05.728Z,10844.00
2018-09-14T10:44:05.714Z,11076.00
2018-09-14T10:45:06.107Z,10924.00
2018-09-14T10:46:05.693Z,10852.00
2018-09-14T10:47:05.728Z,11044.00
2018-09-14T10:48:05.670Z,11612.00
2018-09-14T10:49:05.659Z,12212.00
2018-09-14T10:50:06.852Z,12424.00
2018-09-14T10:51:05.637Z,12680.00
2018-09-14T10:52:05.628Z,12020.00
2018-09-14T10:53:05.616Z,10964.00
2018-09-14T10:54:05.654Z,9976.00
2018-09-14T10:55:05.685Z,9216.00
2018-09-14T10:56:05.587Z,9004.00
2018-09-14T10:57:06.147Z,9092.00
2018-09-14T10:58:05.567Z,9168.00
2018-09-14T10:59:05.554Z,9252.00
2018-09-14T11:00:05.825Z,8984.00
2018-09-14T11:01:05.539Z,8596.00
2018-09-14T11:02:05.523Z,8428.00
2018-09-14T11:03:05.511Z,8336.00
2018-09-14T11:04:05.502Z,7708.00
2018-09-14T11:05:05.493Z,6964.00
2018-09-14T11:06:05.558Z,6608.00
2018-09-14T11:07:05.646Z,6524.00
2018-09-14T11:08:05.458Z,6548.00
2018-09-14T11:09:05.448Z,6776.00
2018-09-14T11:10:05.518Z,7212.00
2018-09-14T11:11:05.698Z,7820.00
2018-09-14T11:12:05.435Z,8392.00
2018-09-14T11:13:05.531Z,8652.00
2018-09-14T11:14:05.394Z,8648.00
2018-09-14T11:15:05.388Z,8564.00
2018-09-14T11:16:05.528Z,8376.00
2018-09-14T11:17:05.366Z,8072.00
2018-09-14T11:18:05.354Z,7792.00
2018-09-14T11:19:05.388Z,7428.00
2018-09-14T11:20:05.338Z,7160.00
2018-09-14T11:21:06.588Z,7220.00
2018-09-14T11:22:05.313Z,7432.00
2018-09-14T11:23:05.302Z,7240.00
2018-09-14T11:24:05.293Z,6784.00
2018-09-14T11:25:05.334Z,6464.00
2018-09-14T11:26:06.418Z,6396.00
2018-09-14T11:27:05.264Z,6476.00
2018-09-14T11:28:05.385Z,6560.00
2018-09-14T11:29:05.245Z,6612.00
2018-09-14T11:30:05.232Z,6560.00
2018-09-14T11:31:08.405Z,6568.00
2018-09-14T11:32:05.210Z,6520.00
2018-09-14T11:33:05.204Z,6544.00
2018-09-14T11:34:05.190Z,6680.00
2018-09-14T11:35:05.183Z,6904.00
2018-09-14T11:36:06.392Z,7116.00
2018-09-14T11:37:05.176Z,7348.00
2018-09-14T11:38:05.177Z,7764.00
2018-09-14T11:39:05.141Z,8320.00
2018-09-14T11:40:05.129Z,8812.00
2018-09-14T11:41:05.120Z,8964.00
2018-09-14T11:42:05.209Z,8764.00
2018-09-14T11:43:05.100Z,8684.00
2018-09-14T11:44:05.088Z,8800.00
2018-09-14T11:45:05.117Z,9432.00
2018-09-14T11:46:05.076Z,10064.00
2018-09-14T11:47:07.494Z,10368.00
2018-09-14T11:48:05.048Z,10660.00
2018-09-14T11:49:05.035Z,10980.00
2018-09-14T11:50:05.027Z,11192.00
2018-09-14T11:51:05.015Z,11356.00
2018-09-14T11:52:06.097Z,11312.00
2018-09-14T11:53:04.994Z,11096.00
2018-09-14T11:54:05.019Z,10992.00
2018-09-14T11:55:04.976Z,10944.00
2018-09-14T11:56:04.961Z,10896.00
2018-09-14T11:57:05.005Z,10900.00
2018-09-14T11:58:04.938Z,11096.00
2018-09-14T11:59:04.930Z,11552.00
2018-09-14T12:00:04.921Z,11820.00
2018-09-14T12:01:04.907Z,11788.00
2018-09-14T12:02:05.159Z,11696.00
2018-09-14T12:03:04.887Z,11496.00
2018-09-14T12:04:04.904Z,11096.00
2018-09-14T12:05:04.871Z,10324.00
2018-09-14T12:06:04.859Z,9396.00
2018-09-14T12:07:04.972Z,8800.00
2018-09-14T12:08:04.838Z,8424.00
2018-09-14T12:09:04.824Z,8052.00
2018-09-14T12:10:04.815Z,7164.00
2018-09-14T12:11:04.806Z,6668.00
2018-09-14T12:12:04.795Z,6496.00
2018-09-14T12:13:05.016Z,6296.00
2018-09-14T12:14:04.826Z,6220.00
2018-09-14T12:15:04.760Z,6260.00
2018-09-14T12:16:04.751Z,5988.00
2018-09-14T12:17:04.744Z,5996.00
2018-09-14T12:18:04.853Z,6096.00
2018-09-14T12:19:04.722Z,6360.00
2018-09-14T12:20:04.710Z,6552.00
2018-09-14T12:21:04.697Z,6316.00
2018-09-14T12:22:04.716Z,5928.00
2018-09-14T12:23:04.985Z,5860.00
2018-09-14T12:24:04.669Z,5896.00
2018-09-14T12:25:04.670Z,5832.00
2018-09-14T12:26:04.648Z,5644.00
2018-09-14T12:27:04.637Z,5456.00
2018-09-14T12:28:04.816Z,5488.00
2018-09-14T12:29:04.618Z,5528.00
2018-09-14T12:30:04.606Z,5736.00
2018-09-14T12:31:04.602Z,6028.00